< < Back
Terminal Aerodrome Forecast


Current Version              Previous Versions:   1  2  3  4  5  6  7  8  9  

Terminal Aerodrome Forecast

403
FTUS42 KILM 011133
TAFILM
TAF
KILM 011133Z 0112/0212 VRB04KT P6SM SCT040 SCT100 BKN150
     FM011800 16007KT P6SM VCSH BKN060
     FM012100 18006KT P6SM SCT080
     FM020400 VRB03KT P6SM FEW080=



Latest METAR

388
SAUS70 KWBC 011400 RRF
MTRILM
METAR KILM 011353Z VRB03KT 10SM CLR 27/24 A2993 RMK AO2 SLP135
T02720239


USA.gov is the U.S. government's official web portal to all federal, state and local government web resources and services.